sensor_id;sensor_type;location;lat;lon;timestamp;temperature;humidity
7738;DHT22;29398;45.328;5.558;2023-11-21T00:00:17;10.60;99.90
7738;DHT22;29398;45.328;5.558;2023-11-21T00:01:18;10.60;99.90
7738;DHT22;29398;45.328;5.558;2023-11-21T00:02:20;10.60;99.90
7738;DHT22;29398;45.328;5.558;2023-11-21T00:03:21;10.70;99.90
7738;DHT22;29398;45.328;5.558;2023-11-21T00:04:24;10.70;99.90
7738;DHT22;29398;45.328;5.558;2023-11-21T00:05:26;10.70;99.90
7738;DHT22;29398;45.328;5.558;2023-11-21T00:06:28;10.70;99.90
7738;DHT22;29398;45.328;5.558;2023-11-21T00:07:30;10.70;99.90
7738;DHT22;29398;45.328;5.558;2023-11-21T00:08:32;10.70;99.90
7738;DHT22;29398;45.328;5.558;2023-11-21T00:09:34;10.70;99.90
7738;DHT22;29398;45.328;5.558;2023-11-21T00:10:37;10.70;99.90
7738;DHT22;29398;45.328;5.558;2023-11-21T00:11:39;10.70;99.90
7738;DHT22;29398;45.328;5.558;2023-11-21T00:12:41;10.70;99.90
7738;DHT22;29398;45.328;5.558;2023-11-21T00:13:42;10.70;99.90
7738;DHT22;29398;45.328;5.558;2023-11-21T00:14:46;10.70;99.90
7738;DHT22;29398;45.328;5.558;2023-11-21T00:15:49;10.70;99.90
7738;DHT22;29398;45.328;5.558;2023-11-21T00:16:51;10.70;99.90
7738;DHT22;29398;45.328;5.558;2023-11-21T00:17:52;10.70;99.90
7738;DHT22;29398;45.328;5.558;2023-11-21T00:18:54;10.60;99.90
7738;DHT22;29398;45.328;5.558;2023-11-21T00:19:55;10.60;99.90
7738;DHT22;29398;45.328;5.558;2023-11-21T00:20:56;10.60;99.90
7738;DHT22;29398;45.328;5.558;2023-11-21T00:21:59;10.60;99.90
7738;DHT22;29398;45.328;5.558;2023-11-21T00:23:00;10.50;99.90
7738;DHT22;29398;45.328;5.558;2023-11-21T00:24:03;10.50;99.90
7738;DHT22;29398;45.328;5.558;2023-11-21T00:25:05;10.50;99.90
7738;DHT22;29398;45.328;5.558;2023-11-21T00:26:09;10.50;99.90
7738;DHT22;29398;45.328;5.558;2023-11-21T00:27:11;10.50;99.90
7738;DHT22;29398;45.328;5.558;2023-11-21T00:28:12;10.50;99.90
7738;DHT22;29398;45.328;5.558;2023-11-21T00:29:14;10.50;99.90
7738;DHT22;29398;45.328;5.558;2023-11-21T00:30:18;10.40;99.90
7738;DHT22;29398;45.328;5.558;2023-11-21T00:31:22;10.40;99.90
7738;DHT22;29398;45.328;5.558;2023-11-21T00:32:23;10.40;99.90
7738;DHT22;29398;45.328;5.558;2023-11-21T00:33:24;10.40;99.90
7738;DHT22;29398;45.328;5.558;2023-11-21T00:34:28;10.40;99.90
7738;DHT22;29398;45.328;5.558;2023-11-21T00:35:29;10.40;99.90
7738;DHT22;29398;45.328;5.558;2023-11-21T00:36:30;10.30;99.90
7738;DHT22;29398;45.328;5.558;2023-11-21T00:37:32;10.30;99.90
7738;DHT22;29398;45.328;5.558;2023-11-21T00:38:33;10.30;99.90
7738;DHT22;29398;45.328;5.558;2023-11-21T00:39:35;10.30;99.90
7738;DHT22;29398;45.328;5.558;2023-11-21T00:40:36;10.30;99.90
7738;DHT22;29398;45.328;5.558;2023-11-21T00:41:38;10.30;99.90
7738;DHT22;29398;45.328;5.558;2023-11-21T00:42:39;10.20;99.90
7738;DHT22;29398;45.328;5.558;2023-11-21T00:43:41;10.20;99.90
7738;DHT22;29398;45.328;5.558;2023-11-21T00:44:42;10.20;99.90
7738;DHT22;29398;45.328;5.558;2023-11-21T00:45:44;10.20;99.90
7738;DHT22;29398;45.328;5.558;2023-11-21T00:46:48;10.20;99.90
7738;DHT22;29398;45.328;5.558;2023-11-21T00:47:51;10.10;99.90
7738;DHT22;29398;45.328;5.558;2023-11-21T00:48:52;10.10;99.90
7738;DHT22;29398;45.328;5.558;2023-11-21T00:49:55;10.10;99.90
7738;DHT22;29398;45.328;5.558;2023-11-21T00:50:56;10.10;99.90
7738;DHT22;29398;45.328;5.558;2023-11-21T00:51:58;10.00;99.90
7738;DHT22;29398;45.328;5.558;2023-11-21T00:53:00;10.00;99.90
7738;DHT22;29398;45.328;5.558;2023-11-21T00:54:03;10.00;99.90
7738;DHT22;29398;45.328;5.558;2023-11-21T00:55:06;10.10;99.90
7738;DHT22;29398;45.328;5.558;2023-11-21T00:56:08;10.10;99.90
7738;DHT22;29398;45.328;5.558;2023-11-21T00:57:09;10.10;99.90
7738;DHT22;29398;45.328;5.558;2023-11-21T00:58:12;10.10;99.90
7738;DHT22;29398;45.328;5.558;2023-11-21T00:59:13;10.10;99.90
7738;DHT22;29398;45.328;5.558;2023-11-21T01:00:16;10.10;99.90
7738;DHT22;29398;45.328;5.558;2023-11-21T01:01:18;10.10;99.90
7738;DHT22;29398;45.328;5.558;2023-11-21T01:02:22;10.10;99.90
7738;DHT22;29398;45.328;5.558;2023-11-21T01:03:23;10.10;99.90
7738;DHT22;29398;45.328;5.558;2023-11-21T01:04:26;10.10;99.90
7738;DHT22;29398;45.328;5.558;2023-11-21T01:05:27;10.10;99.90
7738;DHT22;29398;45.328;5.558;2023-11-21T01:06:27;10.10;99.90
7738;DHT22;29398;45.328;5.558;2023-11-21T01:07:30;10.10;99.90
7738;DHT22;29398;45.328;5.558;2023-11-21T01:08:31;10.00;99.90
7738;DHT22;29398;45.328;5.558;2023-11-21T01:09:33;10.00;99.90
7738;DHT22;29398;45.328;5.558;2023-11-21T01:10:34;10.00;99.90
7738;DHT22;29398;45.328;5.558;2023-11-21T01:11:36;10.00;99.90
7738;DHT22;29398;45.328;5.558;2023-11-21T01:12:38;10.00;99.90
7738;DHT22;29398;45.328;5.558;2023-11-21T01:13:40;10.00;99.90
7738;DHT22;29398;45.328;5.558;2023-11-21T01:14:43;10.00;99.90
7738;DHT22;29398;45.328;5.558;2023-11-21T01:15:44;10.00;99.90
7738;DHT22;29398;45.328;5.558;2023-11-21T01:16:46;9.90;99.90
7738;DHT22;29398;45.328;5.558;2023-11-21T01:17:48;9.90;99.90
7738;DHT22;29398;45.328;5.558;2023-11-21T01:18:50;9.90;99.90
7738;DHT22;29398;45.328;5.558;2023-11-21T01:19:52;9.90;99.90
7738;DHT22;29398;45.328;5.558;2023-11-21T01:20:54;9.90;99.90
7738;DHT22;29398;45.328;5.558;2023-11-21T01:21:55;9.90;99.90
7738;DHT22;29398;45.328;5.558;2023-11-21T01:22:58;9.80;99.90
7738;DHT22;29398;45.328;5.558;2023-11-21T01:23:59;9.80;99.90
7738;DHT22;29398;45.328;5.558;2023-11-21T01:25:01;9.80;99.90
7738;DHT22;29398;45.328;5.558;2023-11-21T01:26:05;9.80;99.90
7738;DHT22;29398;45.328;5.558;2023-11-21T01:27:10;9.80;99.90
7738;DHT22;29398;45.328;5.558;2023-11-21T01:28:11;9.80;99.90
7738;DHT22;29398;45.328;5.558;2023-11-21T01:29:14;9.70;99.90
7738;DHT22;29398;45.328;5.558;2023-11-21T01:30:15;9.70;99.90
7738;DHT22;29398;45.328;5.558;2023-11-21T01:31:17;9.70;99.90
7738;DHT22;29398;45.328;5.558;2023-11-21T01:32:18;9.70;99.90
7738;DHT22;29398;45.328;5.558;2023-11-21T01:33:22;9.80;99.90
7738;DHT22;29398;45.328;5.558;2023-11-21T01:34:26;9.80;99.90
7738;DHT22;29398;45.328;5.558;2023-11-21T01:35:29;9.70;99.90
7738;DHT22;29398;45.328;5.558;2023-11-21T01:36:30;9.70;99.90
7738;DHT22;29398;45.328;5.558;2023-11-21T01:37:33;9.80;99.90
7738;DHT22;29398;45.328;5.558;2023-11-21T01:38:34;9.80;99.90
7738;DHT22;29398;45.328;5.558;2023-11-21T01:39:36;9.80;99.90
7738;DHT22;29398;45.328;5.558;2023-11-21T01:40:39;9.80;99.90
7738;DHT22;29398;45.328;5.558;2023-11-21T01:41:41;9.80;99.90
7738;DHT22;29398;45.328;5.558;2023-11-21T01:42:44;9.80;99.90
7738;DHT22;29398;45.328;5.558;2023-11-21T01:43:48;9.90;99.90
7738;DHT22;29398;45.328;5.558;2023-11-21T01:44:49;9.90;99.90
7738;DHT22;29398;45.328;5.558;2023-11-21T01:45:51;9.90;99.90
7738;DHT22;29398;45.328;5.558;2023-11-21T01:46:52;9.90;99.90
7738;DHT22;29398;45.328;5.558;2023-11-21T01:47:54;9.90;99.90
7738;DHT22;29398;45.328;5.558;2023-11-21T01:48:57;9.90;99.90
7738;DHT22;29398;45.328;5.558;2023-11-21T01:49:59;9.90;99.90
7738;DHT22;29398;45.328;5.558;2023-11-21T01:51:00;9.90;99.90
7738;DHT22;29398;45.328;5.558;2023-11-21T01:52:04;9.80;99.90
7738;DHT22;29398;45.328;5.558;2023-11-21T01:53:05;9.80;99.90
7738;DHT22;29398;45.328;5.558;2023-11-21T01:54:07;9.80;99.90
7738;DHT22;29398;45.328;5.558;2023-11-21T01:55:09;9.80;99.90
7738;DHT22;29398;45.328;5.558;2023-11-21T01:56:13;9.70;99.90
7738;DHT22;29398;45.328;5.558;2023-11-21T01:57:15;9.70;99.90
7738;DHT22;29398;45.328;5.558;2023-11-21T01:58:17;9.60;99.90
7738;DHT22;29398;45.328;5.558;2023-11-21T01:59:19;9.60;99.90
7738;DHT22;29398;45.328;5.558;2023-11-21T02:00:22;9.60;99.90
7738;DHT22;29398;45.328;5.558;2023-11-21T02:01:24;9.60;99.90
7738;DHT22;29398;45.328;5.558;2023-11-21T02:03:29;9.50;99.90
7738;DHT22;29398;45.328;5.558;2023-11-21T02:04:33;9.50;99.90
7738;DHT22;29398;45.328;5.558;2023-11-21T02:05:34;9.40;99.90
7738;DHT22;29398;45.328;5.558;2023-11-21T02:06:36;9.40;99.90
7738;DHT22;29398;45.328;5.558;2023-11-21T02:07:37;9.40;99.90
7738;DHT22;29398;45.328;5.558;2023-11-21T02:08:40;9.40;99.90
7738;DHT22;29398;45.328;5.558;2023-11-21T02:09:43;9.30;99.90
7738;DHT22;29398;45.328;5.558;2023-11-21T02:10:46;9.30;99.90
7738;DHT22;29398;45.328;5.558;2023-11-21T02:11:48;9.30;99.90
7738;DHT22;29398;45.328;5.558;2023-11-21T02:12:50;9.30;99.90
7738;DHT22;29398;45.328;5.558;2023-11-21T02:13:52;9.20;99.90
7738;DHT22;29398;45.328;5.558;2023-11-21T02:14:54;9.20;99.90
7738;DHT22;29398;45.328;5.558;2023-11-21T02:15:56;9.20;99.90
7738;DHT22;29398;45.328;5.558;2023-11-21T02:16:58;9.10;99.90
7738;DHT22;29398;45.328;5.558;2023-11-21T02:18:01;9.10;99.90
7738;DHT22;29398;45.328;5.558;2023-11-21T02:19:06;9.10;99.90
7738;DHT22;29398;45.328;5.558;2023-11-21T02:20:12;9.10;99.90
7738;DHT22;29398;45.328;5.558;2023-11-21T02:21:17;9.10;99.90
7738;DHT22;29398;45.328;5.558;2023-11-21T02:22:20;9.00;99.90
7738;DHT22;29398;45.328;5.558;2023-11-21T02:23:22;9.00;99.90
7738;DHT22;29398;45.328;5.558;2023-11-21T02:24:29;9.00;99.90
7738;DHT22;29398;45.328;5.558;2023-11-21T02:25:31;9.00;99.90
7738;DHT22;29398;45.328;5.558;2023-11-21T02:26:33;9.00;99.90
7738;DHT22;29398;45.328;5.558;2023-11-21T02:27:34;9.00;99.90
7738;DHT22;29398;45.328;5.558;2023-11-21T02:28:37;9.00;99.90
7738;DHT22;29398;45.328;5.558;2023-11-21T02:29:39;9.00;99.90
7738;DHT22;29398;45.328;5.558;2023-11-21T02:30:41;8.90;99.90
7738;DHT22;29398;45.328;5.558;2023-11-21T02:31:43;8.90;99.90
7738;DHT22;29398;45.328;5.558;2023-11-21T02:32:48;8.90;99.90
7738;DHT22;29398;45.328;5.558;2023-11-21T02:33:49;8.80;99.90
7738;DHT22;29398;45.328;5.558;2023-11-21T02:34:51;8.80;99.90
7738;DHT22;29398;45.328;5.558;2023-11-21T02:35:52;8.80;99.90
7738;DHT22;29398;45.328;5.558;2023-11-21T02:36:55;8.80;99.90
7738;DHT22;29398;45.328;5.558;2023-11-21T02:37:58;8.80;99.90
7738;DHT22;29398;45.328;5.558;2023-11-21T02:39:00;8.70;99.90
7738;DHT22;29398;45.328;5.558;2023-11-21T02:40:04;8.80;99.90
7738;DHT22;29398;45.328;5.558;2023-11-21T02:41:07;8.70;99.90
7738;DHT22;29398;45.328;5.558;2023-11-21T02:42:09;8.70;99.90
7738;DHT22;29398;45.328;5.558;2023-11-21T02:43:10;8.70;99.90
7738;DHT22;29398;45.328;5.558;2023-11-21T02:44:12;8.70;99.90
7738;DHT22;29398;45.328;5.558;2023-11-21T02:45:13;8.70;99.90
7738;DHT22;29398;45.328;5.558;2023-11-21T02:46:17;8.70;99.90
7738;DHT22;29398;45.328;5.558;2023-11-21T02:47:19;8.70;99.90
7738;DHT22;29398;45.328;5.558;2023-11-21T02:48:20;8.70;99.90
7738;DHT22;29398;45.328;5.558;2023-11-21T02:49:24;8.70;99.90
7738;DHT22;29398;45.328;5.558;2023-11-21T02:50:29;8.80;99.90
7738;DHT22;29398;45.328;5.558;2023-11-21T02:51:31;8.80;99.90
7738;DHT22;29398;45.328;5.558;2023-11-21T02:52:32;8.70;99.90
7738;DHT22;29398;45.328;5.558;2023-11-21T02:53:34;8.70;99.90
7738;DHT22;29398;45.328;5.558;2023-11-21T02:54:37;8.70;99.90
7738;DHT22;29398;45.328;5.558;2023-11-21T02:55:39;8.70;99.90
7738;DHT22;29398;45.328;5.558;2023-11-21T02:56:40;8.80;99.90
7738;DHT22;29398;45.328;5.558;2023-11-21T02:57:43;8.80;99.90
7738;DHT22;29398;45.328;5.558;2023-11-21T02:58:45;8.80;99.90
7738;DHT22;29398;45.328;5.558;2023-11-21T02:59:47;8.80;99.90
7738;DHT22;29398;45.328;5.558;2023-11-21T03:00:48;8.80;99.90
7738;DHT22;29398;45.328;5.558;2023-11-21T03:01:50;8.80;99.90
7738;DHT22;29398;45.328;5.558;2023-11-21T03:02:52;8.70;99.90
7738;DHT22;29398;45.328;5.558;2023-11-21T03:03:54;8.70;99.90
7738;DHT22;29398;45.328;5.558;2023-11-21T03:04:57;8.70;99.90
7738;DHT22;29398;45.328;5.558;2023-11-21T03:05:59;8.60;99.90
7738;DHT22;29398;45.328;5.558;2023-11-21T03:07:00;8.70;99.90
7738;DHT22;29398;45.328;5.558;2023-11-21T03:08:01;8.70;99.90
7738;DHT22;29398;45.328;5.558;2023-11-21T03:09:03;8.60;99.90
7738;DHT22;29398;45.328;5.558;2023-11-21T03:10:07;8.70;99.90
7738;DHT22;29398;45.328;5.558;2023-11-21T03:11:11;8.60;99.90
7738;DHT22;29398;45.328;5.558;2023-11-21T03:12:13;8.60;99.90
7738;DHT22;29398;45.328;5.558;2023-11-21T03:13:16;8.60;99.90
7738;DHT22;29398;45.328;5.558;2023-11-21T03:14:17;8.60;99.90
7738;DHT22;29398;45.328;5.558;2023-11-21T03:16:21;8.60;99.90
7738;DHT22;29398;45.328;5.558;2023-11-21T03:17:23;8.60;99.90
7738;DHT22;29398;45.328;5.558;2023-11-21T03:18:25;8.60;99.90
7738;DHT22;29398;45.328;5.558;2023-11-21T03:19:26;8.60;99.90
7738;DHT22;29398;45.328;5.558;2023-11-21T03:20:28;8.60;99.90
7738;DHT22;29398;45.328;5.558;2023-11-21T03:21:29;8.60;99.90
7738;DHT22;29398;45.328;5.558;2023-11-21T03:22:31;8.70;99.90
7738;DHT22;29398;45.328;5.558;2023-11-21T03:23:33;8.80;99.90
7738;DHT22;29398;45.328;5.558;2023-11-21T03:24:34;8.80;99.90
7738;DHT22;29398;45.328;5.558;2023-11-21T03:25:37;8.80;99.90
7738;DHT22;29398;45.328;5.558;2023-11-21T03:26:38;8.80;99.90
7738;DHT22;29398;45.328;5.558;2023-11-21T03:27:40;8.80;99.90
7738;DHT22;29398;45.328;5.558;2023-11-21T03:28:41;8.90;99.90
7738;DHT22;29398;45.328;5.558;2023-11-21T03:29:44;8.90;99.90
7738;DHT22;29398;45.328;5.558;2023-11-21T03:30:45;8.90;99.90
7738;DHT22;29398;45.328;5.558;2023-11-21T03:31:47;9.00;99.90
7738;DHT22;29398;45.328;5.558;2023-11-21T03:32:49;9.00;99.90
7738;DHT22;29398;45.328;5.558;2023-11-21T03:33:51;9.10;99.90
7738;DHT22;29398;45.328;5.558;2023-11-21T03:34:55;9.10;99.90
7738;DHT22;29398;45.328;5.558;2023-11-21T03:35:57;9.10;99.90
7738;DHT22;29398;45.328;5.558;2023-11-21T03:36:59;9.10;99.90
7738;DHT22;29398;45.328;5.558;2023-11-21T03:38:00;9.10;99.90
7738;DHT22;29398;45.328;5.558;2023-11-21T03:39:04;9.20;99.90
7738;DHT22;29398;45.328;5.558;2023-11-21T03:40:07;9.20;99.90
7738;DHT22;29398;45.328;5.558;2023-11-21T03:41:11;9.20;99.90
7738;DHT22;29398;45.328;5.558;2023-11-21T03:42:13;9.20;99.90
7738;DHT22;29398;45.328;5.558;2023-11-21T03:43:14;9.30;99.90
7738;DHT22;29398;45.328;5.558;2023-11-21T03:44:16;9.30;99.90
7738;DHT22;29398;45.328;5.558;2023-11-21T03:45:18;9.30;99.90
7738;DHT22;29398;45.328;5.558;2023-11-21T03:46:20;9.30;99.90
7738;DHT22;29398;45.328;5.558;2023-11-21T03:47:22;9.30;99.90
7738;DHT22;29398;45.328;5.558;2023-11-21T03:48:24;9.30;99.90
7738;DHT22;29398;45.328;5.558;2023-11-21T03:49:25;9.30;99.90
7738;DHT22;29398;45.328;5.558;2023-11-21T03:50:27;9.30;99.90
7738;DHT22;29398;45.328;5.558;2023-11-21T03:51:28;9.30;99.90
7738;DHT22;29398;45.328;5.558;2023-11-21T03:52:30;9.30;99.90
7738;DHT22;29398;45.328;5.558;2023-11-21T03:53:31;9.40;99.90
7738;DHT22;29398;45.328;5.558;2023-11-21T03:54:34;9.40;99.90
7738;DHT22;29398;45.328;5.558;2023-11-21T03:55:35;9.40;99.90
7738;DHT22;29398;45.328;5.558;2023-11-21T03:56:39;9.40;99.90
7738;DHT22;29398;45.328;5.558;2023-11-21T03:57:40;9.50;99.90
7738;DHT22;29398;45.328;5.558;2023-11-21T03:58:42;9.40;99.90
7738;DHT22;29398;45.328;5.558;2023-11-21T03:59:44;9.40;99.90
7738;DHT22;29398;45.328;5.558;2023-11-21T04:00:46;9.50;99.90
7738;DHT22;29398;45.328;5.558;2023-11-21T04:01:48;9.50;99.90
7738;DHT22;29398;45.328;5.558;2023-11-21T04:02:50;9.50;99.90
7738;DHT22;29398;45.328;5.558;2023-11-21T04:03:52;9.50;99.90
7738;DHT22;29398;45.328;5.558;2023-11-21T04:04:54;9.50;99.90
7738;DHT22;29398;45.328;5.558;2023-11-21T04:05:55;9.60;99.90
7738;DHT22;29398;45.328;5.558;2023-11-21T04:06:57;9.50;99.90
7738;DHT22;29398;45.328;5.558;2023-11-21T04:07:59;9.60;99.90
7738;DHT22;29398;45.328;5.558;2023-11-21T04:09:01;9.60;99.90
7738;DHT22;29398;45.328;5.558;2023-11-21T04:10:02;9.60;99.90
7738;DHT22;29398;45.328;5.558;2023-11-21T04:11:05;9.60;99.90
7738;DHT22;29398;45.328;5.558;2023-11-21T04:12:07;9.60;99.90
7738;DHT22;29398;45.328;5.558;2023-11-21T04:13:10;9.60;99.90
7738;DHT22;29398;45.328;5.558;2023-11-21T04:14:11;9.60;99.90
7738;DHT22;29398;45.328;5.558;2023-11-21T04:15:13;9.60;99.90
7738;DHT22;29398;45.328;5.558;2023-11-21T04:16:15;9.60;99.90
7738;DHT22;29398;45.328;5.558;2023-11-21T04:17:18;9.70;99.90
7738;DHT22;29398;45.328;5.558;2023-11-21T04:18:19;9.60;99.90
7738;DHT22;29398;45.328;5.558;2023-11-21T04:19:21;9.60;99.90
7738;DHT22;29398;45.328;5.558;2023-11-21T04:20:22;9.60;99.90
7738;DHT22;29398;45.328;5.558;2023-11-21T04:21:24;9.60;99.90
7738;DHT22;29398;45.328;5.558;2023-11-21T04:22:25;9.60;99.90
7738;DHT22;29398;45.328;5.558;2023-11-21T04:23:28;9.60;99.90
7738;DHT22;29398;45.328;5.558;2023-11-21T04:24:30;9.60;99.90
7738;DHT22;29398;45.328;5.558;2023-11-21T04:25:32;9.60;99.90
7738;DHT22;29398;45.328;5.558;2023-11-21T04:26:34;9.50;99.90
7738;DHT22;29398;45.328;5.558;2023-11-21T04:27:36;9.50;99.90
7738;DHT22;29398;45.328;5.558;2023-11-21T04:28:38;9.50;99.90
7738;DHT22;29398;45.328;5.558;2023-11-21T04:29:39;9.50;99.90
7738;DHT22;29398;45.328;5.558;2023-11-21T04:30:42;9.50;99.90
7738;DHT22;29398;45.328;5.558;2023-11-21T04:31:43;9.50;99.90
7738;DHT22;29398;45.328;5.558;2023-11-21T04:32:45;9.50;99.90
7738;DHT22;29398;45.328;5.558;2023-11-21T04:33:46;9.50;99.90
7738;DHT22;29398;45.328;5.558;2023-11-21T04:34:47;9.50;99.90
7738;DHT22;29398;45.328;5.558;2023-11-21T04:35:49;9.50;99.90
7738;DHT22;29398;45.328;5.558;2023-11-21T04:36:50;9.50;99.90
7738;DHT22;29398;45.328;5.558;2023-11-21T04:37:52;9.50;99.90
7738;DHT22;29398;45.328;5.558;2023-11-21T04:38:53;9.50;99.90
7738;DHT22;29398;45.328;5.558;2023-11-21T04:39:55;9.50;99.90
7738;DHT22;29398;45.328;5.558;2023-11-21T04:40:56;9.40;99.90
7738;DHT22;29398;45.328;5.558;2023-11-21T04:41:58;9.40;99.90
7738;DHT22;29398;45.328;5.558;2023-11-21T04:43:01;9.40;99.90
7738;DHT22;29398;45.328;5.558;2023-11-21T04:44:05;9.40;99.90
7738;DHT22;29398;45.328;5.558;2023-11-21T04:45:07;9.30;99.90
7738;DHT22;29398;45.328;5.558;2023-11-21T04:46:12;9.30;99.90
7738;DHT22;29398;45.328;5.558;2023-11-21T04:47:13;9.20;99.90
7738;DHT22;29398;45.328;5.558;2023-11-21T04:48:14;9.20;99.90
7738;DHT22;29398;45.328;5.558;2023-11-21T04:49:15;9.30;99.90
7738;DHT22;29398;45.328;5.558;2023-11-21T04:50:17;9.30;99.90
7738;DHT22;29398;45.328;5.558;2023-11-21T04:51:19;9.30;99.90
7738;DHT22;29398;45.328;5.558;2023-11-21T04:52:21;9.30;99.90
7738;DHT22;29398;45.328;5.558;2023-11-21T04:53:22;9.40;99.90
7738;DHT22;29398;45.328;5.558;2023-11-21T04:54:24;9.40;99.90
7738;DHT22;29398;45.328;5.558;2023-11-21T04:55:25;9.40;99.90
7738;DHT22;29398;45.328;5.558;2023-11-21T04:56:28;9.40;99.90
7738;DHT22;29398;45.328;5.558;2023-11-21T04:57:29;9.40;99.90
7738;DHT22;29398;45.328;5.558;2023-11-21T04:58:33;9.40;99.90
7738;DHT22;29398;45.328;5.558;2023-11-21T04:59:34;9.50;99.90
7738;DHT22;29398;45.328;5.558;2023-11-21T05:00:36;9.50;99.90
7738;DHT22;29398;45.328;5.558;2023-11-21T05:01:37;9.50;99.90
7738;DHT22;29398;45.328;5.558;2023-11-21T05:02:40;9.50;99.90
7738;DHT22;29398;45.328;5.558;2023-11-21T05:03:42;9.50;99.90
7738;DHT22;29398;45.328;5.558;2023-11-21T05:04:44;9.50;99.90
7738;DHT22;29398;45.328;5.558;2023-11-21T05:05:45;9.50;99.90
7738;DHT22;29398;45.328;5.558;2023-11-21T05:06:47;9.60;99.90
7738;DHT22;29398;45.328;5.558;2023-11-21T05:07:48;9.60;99.90
7738;DHT22;29398;45.328;5.558;2023-11-21T05:08:50;9.60;99.90
7738;DHT22;29398;45.328;5.558;2023-11-21T05:09:51;9.60;99.90
7738;DHT22;29398;45.328;5.558;2023-11-21T05:10:52;9.60;99.90
7738;DHT22;29398;45.328;5.558;2023-11-21T05:11:55;9.60;99.90
7738;DHT22;29398;45.328;5.558;2023-11-21T05:12:56;9.70;99.90
7738;DHT22;29398;45.328;5.558;2023-11-21T05:14:00;9.70;99.90
7738;DHT22;29398;45.328;5.558;2023-11-21T05:15:04;9.70;99.90
7738;DHT22;29398;45.328;5.558;2023-11-21T05:16:10;9.70;99.90
7738;DHT22;29398;45.328;5.558;2023-11-21T05:17:11;9.70;99.90
7738;DHT22;29398;45.328;5.558;2023-11-21T05:18:13;9.70;99.90
7738;DHT22;29398;45.328;5.558;2023-11-21T05:19:14;9.70;99.90
7738;DHT22;29398;45.328;5.558;2023-11-21T05:20:16;9.70;99.90
7738;DHT22;29398;45.328;5.558;2023-11-21T05:21:21;9.70;99.90
7738;DHT22;29398;45.328;5.558;2023-11-21T05:22:24;9.70;99.90
7738;DHT22;29398;45.328;5.558;2023-11-21T05:23:25;9.60;99.90
7738;DHT22;29398;45.328;5.558;2023-11-21T05:24:27;9.60;99.90
7738;DHT22;29398;45.328;5.558;2023-11-21T05:25:29;9.70;99.90
7738;DHT22;29398;45.328;5.558;2023-11-21T05:26:31;9.60;99.90
7738;DHT22;29398;45.328;5.558;2023-11-21T05:27:32;9.70;99.90
7738;DHT22;29398;45.328;5.558;2023-11-21T05:28:34;9.70;99.90
7738;DHT22;29398;45.328;5.558;2023-11-21T05:29:36;9.70;99.90
7738;DHT22;29398;45.328;5.558;2023-11-21T05:30:39;9.70;99.90
7738;DHT22;29398;45.328;5.558;2023-11-21T05:31:40;9.70;99.90
7738;DHT22;29398;45.328;5.558;2023-11-21T05:32:42;9.70;99.90
7738;DHT22;29398;45.328;5.558;2023-11-21T05:33:43;9.70;99.90
7738;DHT22;29398;45.328;5.558;2023-11-21T05:34:44;9.80;99.90
7738;DHT22;29398;45.328;5.558;2023-11-21T05:35:46;9.80;99.90
7738;DHT22;29398;45.328;5.558;2023-11-21T05:36:48;9.80;99.90
7738;DHT22;29398;45.328;5.558;2023-11-21T05:37:50;9.80;99.90
7738;DHT22;29398;45.328;5.558;2023-11-21T05:38:51;9.80;99.90
7738;DHT22;29398;45.328;5.558;2023-11-21T05:39:54;9.80;99.90
7738;DHT22;29398;45.328;5.558;2023-11-21T05:40:57;9.80;99.90
7738;DHT22;29398;45.328;5.558;2023-11-21T05:41:59;9.80;99.90
7738;DHT22;29398;45.328;5.558;2023-11-21T05:43:01;9.80;99.90
7738;DHT22;29398;45.328;5.558;2023-11-21T05:44:03;9.80;99.90
7738;DHT22;29398;45.328;5.558;2023-11-21T05:45:07;9.80;99.90
7738;DHT22;29398;45.328;5.558;2023-11-21T05:46:11;9.90;99.90
7738;DHT22;29398;45.328;5.558;2023-11-21T05:47:14;9.80;99.90
7738;DHT22;29398;45.328;5.558;2023-11-21T05:48:15;9.80;99.90
7738;DHT22;29398;45.328;5.558;2023-11-21T05:49:17;9.90;99.90
7738;DHT22;29398;45.328;5.558;2023-11-21T05:50:18;9.80;99.90
7738;DHT22;29398;45.328;5.558;2023-11-21T05:51:20;9.80;99.90
7738;DHT22;29398;45.328;5.558;2023-11-21T05:52:21;9.80;99.90
7738;DHT22;29398;45.328;5.558;2023-11-21T05:53:23;9.80;99.90
7738;DHT22;29398;45.328;5.558;2023-11-21T05:54:24;9.80;99.90
7738;DHT22;29398;45.328;5.558;2023-11-21T05:55:26;9.80;99.90
7738;DHT22;29398;45.328;5.558;2023-11-21T05:56:27;9.90;99.90
7738;DHT22;29398;45.328;5.558;2023-11-21T05:57:29;9.80;99.90
7738;DHT22;29398;45.328;5.558;2023-11-21T05:58:31;9.90;99.90
7738;DHT22;29398;45.328;5.558;2023-11-21T05:59:33;9.90;99.90
7738;DHT22;29398;45.328;5.558;2023-11-21T06:00:36;9.90;99.90
7738;DHT22;29398;45.328;5.558;2023-11-21T06:01:38;9.80;99.90
7738;DHT22;29398;45.328;5.558;2023-11-21T06:02:39;9.80;99.90
7738;DHT22;29398;45.328;5.558;2023-11-21T06:03:41;9.80;99.90
7738;DHT22;29398;45.328;5.558;2023-11-21T06:04:46;9.80;99.90
7738;DHT22;29398;45.328;5.558;2023-11-21T06:05:47;9.80;99.90
7738;DHT22;29398;45.328;5.558;2023-11-21T06:06:50;9.80;99.90
7738;DHT22;29398;45.328;5.558;2023-11-21T06:07:52;9.80;99.90
7738;DHT22;29398;45.328;5.558;2023-11-21T06:08:53;9.80;99.90
7738;DHT22;29398;45.328;5.558;2023-11-21T06:09:56;9.80;99.90
7738;DHT22;29398;45.328;5.558;2023-11-21T06:10:57;9.80;99.90
7738;DHT22;29398;45.328;5.558;2023-11-21T06:11:59;9.80;99.90
7738;DHT22;29398;45.328;5.558;2023-11-21T06:13:00;9.90;99.90
7738;DHT22;29398;45.328;5.558;2023-11-21T06:14:03;9.80;99.90
7738;DHT22;29398;45.328;5.558;2023-11-21T06:15:05;9.80;99.90
7738;DHT22;29398;45.328;5.558;2023-11-21T06:16:11;9.80;99.90
7738;DHT22;29398;45.328;5.558;2023-11-21T06:17:15;9.80;99.90
7738;DHT22;29398;45.328;5.558;2023-11-21T06:18:18;9.80;99.90
7738;DHT22;29398;45.328;5.558;2023-11-21T06:19:20;9.80;99.90
7738;DHT22;29398;45.328;5.558;2023-11-21T06:20:22;9.80;99.90
7738;DHT22;29398;45.328;5.558;2023-11-21T06:21:25;9.80;99.90
7738;DHT22;29398;45.328;5.558;2023-11-21T06:22:27;9.70;99.90
7738;DHT22;29398;45.328;5.558;2023-11-21T06:23:28;9.80;99.90
7738;DHT22;29398;45.328;5.558;2023-11-21T06:24:30;9.80;99.90
7738;DHT22;29398;45.328;5.558;2023-11-21T06:25:32;9.80;99.90
7738;DHT22;29398;45.328;5.558;2023-11-21T06:26:36;9.80;99.90
7738;DHT22;29398;45.328;5.558;2023-11-21T06:27:38;9.80;99.90
7738;DHT22;29398;45.328;5.558;2023-11-21T06:28:41;9.90;99.90
7738;DHT22;29398;45.328;5.558;2023-11-21T06:29:42;9.80;99.90
7738;DHT22;29398;45.328;5.558;2023-11-21T06:30:44;9.90;99.90
7738;DHT22;29398;45.328;5.558;2023-11-21T06:31:47;9.80;99.90
7738;DHT22;29398;45.328;5.558;2023-11-21T06:32:49;9.90;99.90
7738;DHT22;29398;45.328;5.558;2023-11-21T06:33:51;9.90;99.90
7738;DHT22;29398;45.328;5.558;2023-11-21T06:34:53;9.80;99.90
7738;DHT22;29398;45.328;5.558;2023-11-21T06:35:55;9.90;99.90
7738;DHT22;29398;45.328;5.558;2023-11-21T06:36:57;9.90;99.90
7738;DHT22;29398;45.328;5.558;2023-11-21T06:37:58;9.90;99.90
7738;DHT22;29398;45.328;5.558;2023-11-21T06:39:00;9.90;99.90
7738;DHT22;29398;45.328;5.558;2023-11-21T06:40:01;9.90;99.90
7738;DHT22;29398;45.328;5.558;2023-11-21T06:41:05;9.90;99.90
7738;DHT22;29398;45.328;5.558;2023-11-21T06:42:08;9.90;99.90
7738;DHT22;29398;45.328;5.558;2023-11-21T06:43:09;10.00;99.90
7738;DHT22;29398;45.328;5.558;2023-11-21T06:44:11;10.00;99.90
7738;DHT22;29398;45.328;5.558;2023-11-21T06:45:12;10.00;99.90
7738;DHT22;29398;45.328;5.558;2023-11-21T06:46:15;9.90;99.90